Terminal Aerodrome Forecast
Issued by NWS Upton, NY

Current Version | Previous Version | Text Only | Print | Product List | Glossary On
Versions: 1 2 3 4 5 6 7 8 9 10 11 12 13 14 15 16 17 18 19 20 21 22 23 24 25 26
000
FTUS41 KOKX 042320
TAFJFK
TAF
KJFK 042320Z 0500/0606 05004KT P6SM FEW050 BKN100
     FM050300 VRB03KT P6SM SCT250
     FM051300 23006KT P6SM SKC
     FM051800 19009KT P6SM FEW060
     FM052100 18012KT P6SM FEW060
     FM060100 20006KT P6SM SKC=

USA.gov is the U.S. government's official web portal to all federal, state and local government web resources and services.